sensor_id;sensor_type;location;lat;lon;timestamp;temperature;humidity
75190;HTU21D;69198;44.694;37.790;2023-05-10T00:00:22;10.88;85.67
75190;HTU21D;69198;44.694;37.790;2023-05-10T00:01:24;10.83;85.74
75190;HTU21D;69198;44.694;37.790;2023-05-10T00:02:25;10.84;85.77
75190;HTU21D;69198;44.694;37.790;2023-05-10T00:03:26;10.82;85.83
75190;HTU21D;69198;44.694;37.790;2023-05-10T00:04:27;10.80;85.87
75190;HTU21D;69198;44.694;37.790;2023-05-10T00:05:28;10.78;85.96
75190;HTU21D;69198;44.694;37.790;2023-05-10T00:06:29;10.75;86.05
75190;HTU21D;69198;44.694;37.790;2023-05-10T00:07:30;10.73;86.09
75190;HTU21D;69198;44.694;37.790;2023-05-10T00:08:32;10.72;86.18
75190;HTU21D;69198;44.694;37.790;2023-05-10T00:09:33;10.70;86.26
75190;HTU21D;69198;44.694;37.790;2023-05-10T00:10:34;10.67;86.32
75190;HTU21D;69198;44.694;37.790;2023-05-10T00:11:35;10.67;86.34
75190;HTU21D;69198;44.694;37.790;2023-05-10T00:12:36;10.65;86.36
75190;HTU21D;69198;44.694;37.790;2023-05-10T00:13:37;10.64;86.41
75190;HTU21D;69198;44.694;37.790;2023-05-10T00:14:38;10.64;86.45
75190;HTU21D;69198;44.694;37.790;2023-05-10T00:15:39;10.62;86.50
75190;HTU21D;69198;44.694;37.790;2023-05-10T00:16:40;10.62;86.51
75190;HTU21D;69198;44.694;37.790;2023-05-10T00:17:41;10.64;86.53
75190;HTU21D;69198;44.694;37.790;2023-05-10T00:18:42;10.64;86.58
75190;HTU21D;69198;44.694;37.790;2023-05-10T00:19:43;10.64;86.57
75190;HTU21D;69198;44.694;37.790;2023-05-10T00:20:44;10.63;86.60
75190;HTU21D;69198;44.694;37.790;2023-05-10T00:21:46;10.64;86.61
75190;HTU21D;69198;44.694;37.790;2023-05-10T00:22:47;10.65;86.61
75190;HTU21D;69198;44.694;37.790;2023-05-10T00:23:48;10.63;86.64
75190;HTU21D;69198;44.694;37.790;2023-05-10T00:24:49;10.63;86.61
75190;HTU21D;69198;44.694;37.790;2023-05-10T00:25:50;10.64;86.60
75190;HTU21D;69198;44.694;37.790;2023-05-10T00:26:51;10.62;86.66
75190;HTU21D;69198;44.694;37.790;2023-05-10T00:27:53;10.60;86.67
75190;HTU21D;69198;44.694;37.790;2023-05-10T00:28:55;10.58;86.74
75190;HTU21D;69198;44.694;37.790;2023-05-10T00:29:57;10.58;86.77
75190;HTU21D;69198;44.694;37.790;2023-05-10T00:30:58;10.58;86.78
75190;HTU21D;69198;44.694;37.790;2023-05-10T00:31:59;10.58;86.78
75190;HTU21D;69198;44.694;37.790;2023-05-10T00:33:00;10.59;86.74
75190;HTU21D;69198;44.694;37.790;2023-05-10T00:34:01;10.62;86.74
75190;HTU21D;69198;44.694;37.790;2023-05-10T00:35:02;10.62;86.74
75190;HTU21D;69198;44.694;37.790;2023-05-10T00:36:03;10.62;86.71
75190;HTU21D;69198;44.694;37.790;2023-05-10T00:37:08;10.58;86.74
75190;HTU21D;69198;44.694;37.790;2023-05-10T00:38:09;10.58;86.79
75190;HTU21D;69198;44.694;37.790;2023-05-10T00:39:10;10.58;86.80
75190;HTU21D;69198;44.694;37.790;2023-05-10T00:40:11;10.59;86.82
75190;HTU21D;69198;44.694;37.790;2023-05-10T00:41:12;10.58;86.80
75190;HTU21D;69198;44.694;37.790;2023-05-10T00:42:14;10.58;86.83
75190;HTU21D;69198;44.694;37.790;2023-05-10T00:43:16;10.57;86.85
75190;HTU21D;69198;44.694;37.790;2023-05-10T00:44:17;10.57;86.84
75190;HTU21D;69198;44.694;37.790;2023-05-10T00:45:19;10.57;86.86
75190;HTU21D;69198;44.694;37.790;2023-05-10T00:46:20;10.58;86.83
75190;HTU21D;69198;44.694;37.790;2023-05-10T00:47:22;10.57;86.87
75190;HTU21D;69198;44.694;37.790;2023-05-10T00:48:23;10.56;86.88
75190;HTU21D;69198;44.694;37.790;2023-05-10T00:49:24;10.54;86.93
75190;HTU21D;69198;44.694;37.790;2023-05-10T00:50:25;10.54;86.97
75190;HTU21D;69198;44.694;37.790;2023-05-10T00:51:27;10.52;87.01
75190;HTU21D;69198;44.694;37.790;2023-05-10T00:52:29;10.54;87.00
75190;HTU21D;69198;44.694;37.790;2023-05-10T00:53:31;10.53;87.06
75190;HTU21D;69198;44.694;37.790;2023-05-10T00:54:33;10.54;87.07
75190;HTU21D;69198;44.694;37.790;2023-05-10T00:55:34;10.54;87.05
75190;HTU21D;69198;44.694;37.790;2023-05-10T00:56:36;10.55;87.05
75190;HTU21D;69198;44.694;37.790;2023-05-10T00:57:38;10.53;87.09
75190;HTU21D;69198;44.694;37.790;2023-05-10T00:58:39;10.53;87.09
75190;HTU21D;69198;44.694;37.790;2023-05-10T00:59:40;10.53;87.11
75190;HTU21D;69198;44.694;37.790;2023-05-10T01:00:42;10.51;87.12
75190;HTU21D;69198;44.694;37.790;2023-05-10T01:01:47;10.52;87.09
75190;HTU21D;69198;44.694;37.790;2023-05-10T01:02:48;10.52;87.11
75190;HTU21D;69198;44.694;37.790;2023-05-10T01:03:50;10.51;87.15
75190;HTU21D;69198;44.694;37.790;2023-05-10T01:04:51;10.53;87.13
75190;HTU21D;69198;44.694;37.790;2023-05-10T01:05:52;10.54;87.08
75190;HTU21D;69198;44.694;37.790;2023-05-10T01:06:53;10.55;87.05
75190;HTU21D;69198;44.694;37.790;2023-05-10T01:07:56;10.58;87.03
75190;HTU21D;69198;44.694;37.790;2023-05-10T01:08:57;10.58;87.02
75190;HTU21D;69198;44.694;37.790;2023-05-10T01:09:58;10.58;86.95
75190;HTU21D;69198;44.694;37.790;2023-05-10T01:10:59;10.59;86.90
75190;HTU21D;69198;44.694;37.790;2023-05-10T01:12:00;10.62;86.81
75190;HTU21D;69198;44.694;37.790;2023-05-10T01:13:03;10.60;86.74
75190;HTU21D;69198;44.694;37.790;2023-05-10T01:14:05;10.60;86.70
75190;HTU21D;69198;44.694;37.790;2023-05-10T01:15:10;10.64;86.61
75190;HTU21D;69198;44.694;37.790;2023-05-10T01:16:12;10.62;86.54
75190;HTU21D;69198;44.694;37.790;2023-05-10T01:17:14;10.63;86.48
75190;HTU21D;69198;44.694;37.790;2023-05-10T01:18:20;10.62;86.40
75190;HTU21D;69198;44.694;37.790;2023-05-10T01:19:24;10.58;86.32
75190;HTU21D;69198;44.694;37.790;2023-05-10T01:20:29;10.58;86.31
75190;HTU21D;69198;44.694;37.790;2023-05-10T01:21:39;10.53;86.29
75190;HTU21D;69198;44.694;37.790;2023-05-10T01:25:48;10.34;86.40
75190;HTU21D;69198;44.694;37.790;2023-05-10T01:33:44;9.91;87.05
75190;HTU21D;69198;44.694;37.790;2023-05-10T01:34:54;9.78;87.31
75190;HTU21D;69198;44.694;37.790;2023-05-10T01:39:56;9.67;87.60
75190;HTU21D;69198;44.694;37.790;2023-05-10T01:41:18;9.63;87.65
75190;HTU21D;69198;44.694;37.790;2023-05-10T01:42:25;9.60;87.79
75190;HTU21D;69198;44.694;37.790;2023-05-10T01:43:31;9.59;87.80
75190;HTU21D;69198;44.694;37.790;2023-05-10T01:44:39;9.57;87.85
75190;HTU21D;69198;44.694;37.790;2023-05-10T01:46:10;9.57;87.85
75190;HTU21D;69198;44.694;37.790;2023-05-10T01:47:28;9.53;87.96
75190;HTU21D;69198;44.694;37.790;2023-05-10T01:48:32;9.49;88.01
75190;HTU21D;69198;44.694;37.790;2023-05-10T01:49:43;9.50;88.03
75190;HTU21D;69198;44.694;37.790;2023-05-10T01:50:46;9.48;88.06
75190;HTU21D;69198;44.694;37.790;2023-05-10T01:51:50;9.48;88.09
75190;HTU21D;69198;44.694;37.790;2023-05-10T01:52:55;9.47;88.11
75190;HTU21D;69198;44.694;37.790;2023-05-10T01:54:02;9.48;88.06
75190;HTU21D;69198;44.694;37.790;2023-05-10T01:55:08;9.49;88.08
75190;HTU21D;69198;44.694;37.790;2023-05-10T01:56:11;9.47;88.10
75190;HTU21D;69198;44.694;37.790;2023-05-10T01:57:14;9.47;88.12
75190;HTU21D;69198;44.694;37.790;2023-05-10T01:58:36;9.51;88.06
75190;HTU21D;69198;44.694;37.790;2023-05-10T01:59:43;9.47;88.13
75190;HTU21D;69198;44.694;37.790;2023-05-10T02:00:47;9.46;88.17
75190;HTU21D;69198;44.694;37.790;2023-05-10T02:01:51;9.45;88.19
75190;HTU21D;69198;44.694;37.790;2023-05-10T02:02:54;9.46;88.18
75190;HTU21D;69198;44.694;37.790;2023-05-10T02:03:57;9.46;88.22
75190;HTU21D;69198;44.694;37.790;2023-05-10T02:04:59;9.46;88.22
75190;HTU21D;69198;44.694;37.790;2023-05-10T02:06:01;9.46;88.21
75190;HTU21D;69198;44.694;37.790;2023-05-10T02:07:04;9.49;88.22
75190;HTU21D;69198;44.694;37.790;2023-05-10T02:08:07;9.46;88.20
75190;HTU21D;69198;44.694;37.790;2023-05-10T02:09:11;9.46;88.21
75190;HTU21D;69198;44.694;37.790;2023-05-10T02:10:13;9.45;88.25
75190;HTU21D;69198;44.694;37.790;2023-05-10T02:11:17;9.44;88.30
75190;HTU21D;69198;44.694;37.790;2023-05-10T02:12:18;9.46;88.31
75190;HTU21D;69198;44.694;37.790;2023-05-10T02:13:21;9.46;88.31
75190;HTU21D;69198;44.694;37.790;2023-05-10T02:14:24;9.44;88.35
75190;HTU21D;69198;44.694;37.790;2023-05-10T02:15:27;9.44;88.35
75190;HTU21D;69198;44.694;37.790;2023-05-10T02:16:30;9.44;88.41
75190;HTU21D;69198;44.694;37.790;2023-05-10T02:17:33;9.41;88.47
75190;HTU21D;69198;44.694;37.790;2023-05-10T02:18:35;9.46;88.39
75190;HTU21D;69198;44.694;37.790;2023-05-10T02:19:40;9.42;88.41
75190;HTU21D;69198;44.694;37.790;2023-05-10T02:20:45;9.44;88.44
75190;HTU21D;69198;44.694;37.790;2023-05-10T02:21:47;9.42;88.48
75190;HTU21D;69198;44.694;37.790;2023-05-10T02:22:52;9.44;88.48
75190;HTU21D;69198;44.694;37.790;2023-05-10T02:23:54;9.44;88.51
75190;HTU21D;69198;44.694;37.790;2023-05-10T02:24:58;9.47;88.45
75190;HTU21D;69198;44.694;37.790;2023-05-10T02:26:00;9.49;88.45
75190;HTU21D;69198;44.694;37.790;2023-05-10T02:27:03;9.49;88.45
75190;HTU21D;69198;44.694;37.790;2023-05-10T02:28:06;9.50;88.44
75190;HTU21D;69198;44.694;37.790;2023-05-10T02:29:08;9.52;88.39
75190;HTU21D;69198;44.694;37.790;2023-05-10T02:30:11;9.56;88.31
75190;HTU21D;69198;44.694;37.790;2023-05-10T02:31:13;9.59;88.20
75190;HTU21D;69198;44.694;37.790;2023-05-10T02:32:15;9.63;88.03
75190;HTU21D;69198;44.694;37.790;2023-05-10T02:33:17;9.65;88.00
75190;HTU21D;69198;44.694;37.790;2023-05-10T02:34:21;9.66;87.96
75190;HTU21D;69198;44.694;37.790;2023-05-10T02:35:23;9.67;87.93
75190;HTU21D;69198;44.694;37.790;2023-05-10T02:36:24;9.69;87.83
75190;HTU21D;69198;44.694;37.790;2023-05-10T02:37:28;9.71;87.74
75190;HTU21D;69198;44.694;37.790;2023-05-10T02:38:30;9.72;87.67
75190;HTU21D;69198;44.694;37.790;2023-05-10T02:39:33;9.77;87.57
75190;HTU21D;69198;44.694;37.790;2023-05-10T02:40:36;9.78;87.59
75190;HTU21D;69198;44.694;37.790;2023-05-10T02:41:40;9.79;87.58
75190;HTU21D;69198;44.694;37.790;2023-05-10T02:42:43;9.80;87.58
75190;HTU21D;69198;44.694;37.790;2023-05-10T02:43:45;9.81;87.61
75190;HTU21D;69198;44.694;37.790;2023-05-10T02:44:49;9.83;87.62
75190;HTU21D;69198;44.694;37.790;2023-05-10T02:45:51;9.85;87.57
75190;HTU21D;69198;44.694;37.790;2023-05-10T02:46:52;9.90;87.56
75190;HTU21D;69198;44.694;37.790;2023-05-10T02:47:53;9.92;87.54
75190;HTU21D;69198;44.694;37.790;2023-05-10T02:48:57;9.96;87.43
75190;HTU21D;69198;44.694;37.790;2023-05-10T02:49:58;10.00;87.28
75190;HTU21D;69198;44.694;37.790;2023-05-10T02:51:04;10.01;87.19
75190;HTU21D;69198;44.694;37.790;2023-05-10T02:52:06;10.04;87.13
75190;HTU21D;69198;44.694;37.790;2023-05-10T02:53:15;10.06;87.10
75190;HTU21D;69198;44.694;37.790;2023-05-10T02:54:20;10.10;87.11
75190;HTU21D;69198;44.694;37.790;2023-05-10T02:55:25;10.21;86.86
75190;HTU21D;69198;44.694;37.790;2023-05-10T02:56:33;10.39;86.86
75190;HTU21D;69198;44.694;37.790;2023-05-10T02:57:39;10.71;85.94
75190;HTU21D;69198;44.694;37.790;2023-05-10T02:58:41;10.97;85.05
75190;HTU21D;69198;44.694;37.790;2023-05-10T02:59:42;11.02;84.45
75190;HTU21D;69198;44.694;37.790;2023-05-10T03:00:45;11.04;84.10
75190;HTU21D;69198;44.694;37.790;2023-05-10T03:01:47;10.98;84.03
75190;HTU21D;69198;44.694;37.790;2023-05-10T03:02:48;10.95;84.07
75190;HTU21D;69198;44.694;37.790;2023-05-10T03:03:49;10.92;84.07
75190;HTU21D;69198;44.694;37.790;2023-05-10T03:04:50;10.92;83.88
75190;HTU21D;69198;44.694;37.790;2023-05-10T03:05:51;10.88;83.87
75190;HTU21D;69198;44.694;37.790;2023-05-10T03:06:56;10.86;84.03
75190;HTU21D;69198;44.694;37.790;2023-05-10T03:07:57;10.92;83.86
75190;HTU21D;69198;44.694;37.790;2023-05-10T03:08:58;11.00;83.78
75190;HTU21D;69198;44.694;37.790;2023-05-10T03:10:00;11.17;83.49
75190;HTU21D;69198;44.694;37.790;2023-05-10T03:11:44;11.32;82.79
75190;HTU21D;69198;44.694;37.790;2023-05-10T03:13:05;11.36;82.35
75190;HTU21D;69198;44.694;37.790;2023-05-10T03:16:45;11.16;82.74
75190;HTU21D;69198;44.694;37.790;2023-05-10T03:18:04;11.15;82.92
75190;HTU21D;69198;44.694;37.790;2023-05-10T03:19:17;11.16;82.84
75190;HTU21D;69198;44.694;37.790;2023-05-10T03:20:25;11.13;82.76
75190;HTU21D;69198;44.694;37.790;2023-05-10T03:21:28;11.14;82.89
75190;HTU21D;69198;44.694;37.790;2023-05-10T03:22:49;11.16;82.87
75190;HTU21D;69198;44.694;37.790;2023-05-10T03:24:12;11.19;82.91
75190;HTU21D;69198;44.694;37.790;2023-05-10T03:25:19;11.24;82.94
75190;HTU21D;69198;44.694;37.790;2023-05-10T03:26:25;11.33;82.71
75190;HTU21D;69198;44.694;37.790;2023-05-10T03:27:34;11.47;82.38
75190;HTU21D;69198;44.694;37.790;2023-05-10T03:28:36;11.63;81.71
75190;HTU21D;69198;44.694;37.790;2023-05-10T03:29:39;11.79;81.43
75190;HTU21D;69198;44.694;37.790;2023-05-10T03:30:41;11.88;81.08
75190;HTU21D;69198;44.694;37.790;2023-05-10T03:31:44;11.99;81.07
75190;HTU21D;69198;44.694;37.790;2023-05-10T03:32:46;12.32;80.69
75190;HTU21D;69198;44.694;37.790;2023-05-10T03:33:50;12.53;79.73
75190;HTU21D;69198;44.694;37.790;2023-05-10T03:34:56;12.70;79.06
75190;HTU21D;69198;44.694;37.790;2023-05-10T03:35:59;12.89;78.59
75190;HTU21D;69198;44.694;37.790;2023-05-10T03:37:00;13.11;78.30
75190;HTU21D;69198;44.694;37.790;2023-05-10T03:38:05;13.37;77.38
75190;HTU21D;69198;44.694;37.790;2023-05-10T03:39:06;13.52;76.64
75190;HTU21D;69198;44.694;37.790;2023-05-10T03:40:08;13.54;76.56
75190;HTU21D;69198;44.694;37.790;2023-05-10T03:41:11;13.60;76.69
75190;HTU21D;69198;44.694;37.790;2023-05-10T03:42:12;13.68;76.57
75190;HTU21D;69198;44.694;37.790;2023-05-10T03:43:14;13.82;76.24
75190;HTU21D;69198;44.694;37.790;2023-05-10T03:44:16;13.94;75.70
75190;HTU21D;69198;44.694;37.790;2023-05-10T03:45:18;13.97;74.92
75190;HTU21D;69198;44.694;37.790;2023-05-10T03:46:19;13.99;74.69
75190;HTU21D;69198;44.694;37.790;2023-05-10T03:47:20;14.04;74.54
75190;HTU21D;69198;44.694;37.790;2023-05-10T03:48:21;14.21;74.42
75190;HTU21D;69198;44.694;37.790;2023-05-10T03:49:22;14.59;74.00
75190;HTU21D;69198;44.694;37.790;2023-05-10T03:50:24;15.00;72.70
75190;HTU21D;69198;44.694;37.790;2023-05-10T03:51:25;15.29;71.48
75190;HTU21D;69198;44.694;37.790;2023-05-10T03:52:29;15.78;70.81
75190;HTU21D;69198;44.694;37.790;2023-05-10T03:53:30;16.14;69.70
75190;HTU21D;69198;44.694;37.790;2023-05-10T03:54:31;16.42;68.33
75190;HTU21D;69198;44.694;37.790;2023-05-10T03:55:32;16.47;67.48
75190;HTU21D;69198;44.694;37.790;2023-05-10T03:56:36;16.27;67.53
75190;HTU21D;69198;44.694;37.790;2023-05-10T03:57:38;16.02;67.72
75190;HTU21D;69198;44.694;37.790;2023-05-10T03:58:40;15.72;68.12
75190;HTU21D;69198;44.694;37.790;2023-05-10T03:59:41;15.51;68.70
75190;HTU21D;69198;44.694;37.790;2023-05-10T04:00:42;15.43;68.97
75190;HTU21D;69198;44.694;37.790;2023-05-10T04:01:46;15.52;68.62
75190;HTU21D;69198;44.694;37.790;2023-05-10T04:02:47;15.69;67.98
75190;HTU21D;69198;44.694;37.790;2023-05-10T04:03:53;15.80;67.72
75190;HTU21D;69198;44.694;37.790;2023-05-10T04:04:55;15.70;66.82
75190;HTU21D;69198;44.694;37.790;2023-05-10T04:06:00;15.46;67.14
75190;HTU21D;69198;44.694;37.790;2023-05-10T04:07:01;15.25;67.17
75190;HTU21D;69198;44.694;37.790;2023-05-10T04:08:03;15.00;67.26
75190;HTU21D;69198;44.694;37.790;2023-05-10T04:09:04;14.81;67.36
75190;HTU21D;69198;44.694;37.790;2023-05-10T04:10:06;14.60;67.41
75190;HTU21D;69198;44.694;37.790;2023-05-10T04:11:08;14.43;67.54
75190;HTU21D;69198;44.694;37.790;2023-05-10T04:12:10;14.27;67.71
75190;HTU21D;69198;44.694;37.790;2023-05-10T04:13:11;14.11;68.45
75190;HTU21D;69198;44.694;37.790;2023-05-10T04:14:12;14.03;69.01
75190;HTU21D;69198;44.694;37.790;2023-05-10T04:15:13;13.98;68.79
75190;HTU21D;69198;44.694;37.790;2023-05-10T04:16:13;13.95;68.81
75190;HTU21D;69198;44.694;37.790;2023-05-10T04:17:14;14.10;68.56
75190;HTU21D;69198;44.694;37.790;2023-05-10T04:18:15;14.22;67.82
75190;HTU21D;69198;44.694;37.790;2023-05-10T04:19:17;14.15;67.87
75190;HTU21D;69198;44.694;37.790;2023-05-10T04:20:18;14.06;68.23
75190;HTU21D;69198;44.694;37.790;2023-05-10T04:21:19;13.95;68.57
75190;HTU21D;69198;44.694;37.790;2023-05-10T04:22:20;13.81;68.97
75190;HTU21D;69198;44.694;37.790;2023-05-10T04:23:21;13.66;69.00
75190;HTU21D;69198;44.694;37.790;2023-05-10T04:24:22;13.54;69.28
75190;HTU21D;69198;44.694;37.790;2023-05-10T04:25:23;13.40;69.74
75190;HTU21D;69198;44.694;37.790;2023-05-10T04:26:24;13.26;69.78
75190;HTU21D;69198;44.694;37.790;2023-05-10T04:27:26;13.18;69.94
75190;HTU21D;69198;44.694;37.790;2023-05-10T04:28:27;13.07;70.35
75190;HTU21D;69198;44.694;37.790;2023-05-10T04:29:28;13.06;70.35
75190;HTU21D;69198;44.694;37.790;2023-05-10T04:30:29;13.02;70.43
75190;HTU21D;69198;44.694;37.790;2023-05-10T04:31:50;12.92;70.91
75190;HTU21D;69198;44.694;37.790;2023-05-10T04:32:51;12.88;71.04
75190;HTU21D;69198;44.694;37.790;2023-05-10T04:33:52;12.85;71.04
75190;HTU21D;69198;44.694;37.790;2023-05-10T04:34:53;12.84;71.06
75190;HTU21D;69198;44.694;37.790;2023-05-10T04:35:54;12.85;71.32
75190;HTU21D;69198;44.694;37.790;2023-05-10T04:36:55;12.92;71.32
75190;HTU21D;69198;44.694;37.790;2023-05-10T04:37:56;12.97;71.18
75190;HTU21D;69198;44.694;37.790;2023-05-10T04:38:57;12.99;70.98
75190;HTU21D;69198;44.694;37.790;2023-05-10T04:39:58;12.96;71.07
75190;HTU21D;69198;44.694;37.790;2023-05-10T04:41:05;12.94;71.03
75190;HTU21D;69198;44.694;37.790;2023-05-10T04:42:06;12.89;71.19
75190;HTU21D;69198;44.694;37.790;2023-05-10T04:43:07;12.84;71.61
75190;HTU21D;69198;44.694;37.790;2023-05-10T04:44:09;12.84;71.86
75190;HTU21D;69198;44.694;37.790;2023-05-10T04:45:10;12.82;72.13
75190;HTU21D;69198;44.694;37.790;2023-05-10T04:46:11;12.84;72.36
75190;HTU21D;69198;44.694;37.790;2023-05-10T04:47:12;12.80;72.38
75190;HTU21D;69198;44.694;37.790;2023-05-10T04:48:13;12.81;72.74
75190;HTU21D;69198;44.694;37.790;2023-05-10T04:49:14;12.78;72.75
75190;HTU21D;69198;44.694;37.790;2023-05-10T04:50:15;12.78;72.90
75190;HTU21D;69198;44.694;37.790;2023-05-10T04:51:16;12.75;72.77
75190;HTU21D;69198;44.694;37.790;2023-05-10T04:52:18;12.74;72.70
75190;HTU21D;69198;44.694;37.790;2023-05-10T04:53:19;12.70;72.64
75190;HTU21D;69198;44.694;37.790;2023-05-10T04:54:20;12.69;73.05
75190;HTU21D;69198;44.694;37.790;2023-05-10T04:55:21;12.66;73.27
75190;HTU21D;69198;44.694;37.790;2023-05-10T04:56:22;12.70;73.44
75190;HTU21D;69198;44.694;37.790;2023-05-10T04:57:23;12.70;73.57
75190;HTU21D;69198;44.694;37.790;2023-05-10T04:58:24;12.69;73.70
75190;HTU21D;69198;44.694;37.790;2023-05-10T04:59:25;12.73;73.73
75190;HTU21D;69198;44.694;37.790;2023-05-10T05:00:27;12.75;73.77
75190;HTU21D;69198;44.694;37.790;2023-05-10T05:01:28;12.79;73.67
75190;HTU21D;69198;44.694;37.790;2023-05-10T05:02:29;12.82;73.58
75190;HTU21D;69198;44.694;37.790;2023-05-10T05:03:30;12.91;73.70
75190;HTU21D;69198;44.694;37.790;2023-05-10T05:04:31;12.97;73.51
75190;HTU21D;69198;44.694;37.790;2023-05-10T05:05:32;13.05;72.94
75190;HTU21D;69198;44.694;37.790;2023-05-10T05:06:33;13.06;73.05
75190;HTU21D;69198;44.694;37.790;2023-05-10T05:07:34;13.11;73.06
75190;HTU21D;69198;44.694;37.790;2023-05-10T05:08:35;13.17;72.90
75190;HTU21D;69198;44.694;37.790;2023-05-10T05:09:36;13.18;72.67
75190;HTU21D;69198;44.694;37.790;2023-05-10T05:10:37;13.17;72.54
75190;HTU21D;69198;44.694;37.790;2023-05-10T05:11:38;13.14;72.48
75190;HTU21D;69198;44.694;37.790;2023-05-10T05:12:40;13.16;72.78
75190;HTU21D;69198;44.694;37.790;2023-05-10T05:13:41;13.15;72.83
75190;HTU21D;69198;44.694;37.790;2023-05-10T05:14:42;13.14;72.54
75190;HTU21D;69198;44.694;37.790;2023-05-10T05:15:43;13.07;72.65
75190;HTU21D;69198;44.694;37.790;2023-05-10T05:16:44;13.05;72.48
75190;HTU21D;69198;44.694;37.790;2023-05-10T05:17:45;12.99;72.71
75190;HTU21D;69198;44.694;37.790;2023-05-10T05:18:46;12.95;72.29
75190;HTU21D;69198;44.694;37.790;2023-05-10T05:19:47;12.89;72.51
75190;HTU21D;69198;44.694;37.790;2023-05-10T05:20:48;12.87;72.62
75190;HTU21D;69198;44.694;37.790;2023-05-10T05:21:49;12.86;72.69
75190;HTU21D;69198;44.694;37.790;2023-05-10T05:22:51;12.89;72.25
75190;HTU21D;69198;44.694;37.790;2023-05-10T05:23:51;12.88;71.47
75190;HTU21D;69198;44.694;37.790;2023-05-10T05:24:53;12.86;71.28
75190;HTU21D;69198;44.694;37.790;2023-05-10T05:25:54;12.84;71.73
75190;HTU21D;69198;44.694;37.790;2023-05-10T05:26:55;12.89;71.77
75190;HTU21D;69198;44.694;37.790;2023-05-10T05:27:56;12.93;72.04
75190;HTU21D;69198;44.694;37.790;2023-05-10T05:28:57;12.94;71.56
75190;HTU21D;69198;44.694;37.790;2023-05-10T05:29:58;12.96;71.64
75190;HTU21D;69198;44.694;37.790;2023-05-10T05:30:59;13.00;71.24
75190;HTU21D;69198;44.694;37.790;2023-05-10T05:32:00;13.06;71.04
75190;HTU21D;69198;44.694;37.790;2023-05-10T05:33:01;13.11;70.91
75190;HTU21D;69198;44.694;37.790;2023-05-10T05:34:02;13.16;70.46
75190;HTU21D;69198;44.694;37.790;2023-05-10T05:35:04;13.26;70.49
75190;HTU21D;69198;44.694;37.790;2023-05-10T05:36:05;13.43;69.87
75190;HTU21D;69198;44.694;37.790;2023-05-10T05:37:06;13.52;68.97
75190;HTU21D;69198;44.694;37.790;2023-05-10T05:38:07;13.53;68.65
75190;HTU21D;69198;44.694;37.790;2023-05-10T05:39:08;13.53;68.72
75190;HTU21D;69198;44.694;37.790;2023-05-10T05:40:12;13.56;68.71
75190;HTU21D;69198;44.694;37.790;2023-05-10T05:41:13;13.56;69.29
75190;HTU21D;69198;44.694;37.790;2023-05-10T05:42:14;13.63;69.42
75190;HTU21D;69198;44.694;37.790;2023-05-10T05:43:17;13.68;69.23
75190;HTU21D;69198;44.694;37.790;2023-05-10T05:44:17;13.76;69.38
75190;HTU21D;69198;44.694;37.790;2023-05-10T05:45:19;13.83;69.61
75190;HTU21D;69198;44.694;37.790;2023-05-10T05:46:19;13.82;69.25
75190;HTU21D;69198;44.694;37.790;2023-05-10T05:47:21;13.75;69.02
75190;HTU21D;69198;44.694;37.790;2023-05-10T05:48:22;13.65;69.26
75190;HTU21D;69198;44.694;37.790;2023-05-10T05:49:23;13.65;69.24
75190;HTU21D;69198;44.694;37.790;2023-05-10T05:50:23;13.66;69.22
75190;HTU21D;69198;44.694;37.790;2023-05-10T05:51:25;13.66;68.80
75190;HTU21D;69198;44.694;37.790;2023-05-10T05:52:26;13.68;68.90
75190;HTU21D;69198;44.694;37.790;2023-05-10T05:53:27;13.73;69.22
75190;HTU21D;69198;44.694;37.790;2023-05-10T05:54:28;13.80;69.13
75190;HTU21D;69198;44.694;37.790;2023-05-10T05:55:29;13.89;69.20
75190;HTU21D;69198;44.694;37.790;2023-05-10T05:56:32;13.91;68.68
75190;HTU21D;69198;44.694;37.790;2023-05-10T05:57:33;13.91;67.77
75190;HTU21D;69198;44.694;37.790;2023-05-10T05:58:34;13.85;67.53
75190;HTU21D;69198;44.694;37.790;2023-05-10T05:59:35;13.76;67.52
75190;HTU21D;69198;44.694;37.790;2023-05-10T06:00:36;13.71;66.92
75190;HTU21D;69198;44.694;37.790;2023-05-10T06:01:37;13.64;67.49
75190;HTU21D;69198;44.694;37.790;2023-05-10T06:02:38;13.59;67.65
75190;HTU21D;69198;44.694;37.790;2023-05-10T06:03:39;13.56;67.72
75190;HTU21D;69198;44.694;37.790;2023-05-10T06:04:40;13.52;67.50
75190;HTU21D;69198;44.694;37.790;2023-05-10T06:05:41;13.52;67.39
75190;HTU21D;69198;44.694;37.790;2023-05-10T06:06:42;13.46;67.35
75190;HTU21D;69198;44.694;37.790;2023-05-10T06:07:43;13.46;67.50
75190;HTU21D;69198;44.694;37.790;2023-05-10T06:08:44;13.43;67.29
75190;HTU21D;69198;44.694;37.790;2023-05-10T06:09:45;13.46;67.26
75190;HTU21D;69198;44.694;37.790;2023-05-10T06:10:46;13.48;67.25
75190;HTU21D;69198;44.694;37.790;2023-05-10T06:11:47;13.47;67.62
75190;HTU21D;69198;44.694;37.790;2023-05-10T06:12:48;13.50;67.80
75190;HTU21D;69198;44.694;37.790;2023-05-10T06:13:49;13.45;67.25
75190;HTU21D;69198;44.694;37.790;2023-05-10T06:14:50;13.38;66.98
75190;HTU21D;69198;44.694;37.790;2023-05-10T06:15:51;13.33;67.14
75190;HTU21D;69198;44.694;37.790;2023-05-10T06:16:52;13.31;67.62
75190;HTU21D;69198;44.694;37.790;2023-05-10T06:17:53;13.32;67.37
75190;HTU21D;69198;44.694;37.790;2023-05-10T06:18:54;13.33;67.31
75190;HTU21D;69198;44.694;37.790;2023-05-10T06:19:56;13.37;67.51
75190;HTU21D;69198;44.694;37.790;2023-05-10T06:20:57;13.45;68.01
75190;HTU21D;69198;44.694;37.790;2023-05-10T06:21:58;13.47;67.22
75190;HTU21D;69198;44.694;37.790;2023-05-10T06:22:59;13.46;67.06
75190;HTU21D;69198;44.694;37.790;2023-05-10T06:24:00;13.45;67.20
75190;HTU21D;69198;44.694;37.790;2023-05-10T06:25:01;13.46;66.84
75190;HTU21D;69198;44.694;37.790;2023-05-10T06:26:02;13.46;67.13
75190;HTU21D;69198;44.694;37.790;2023-05-10T06:27:03;13.50;66.95
75190;HTU21D;69198;44.694;37.790;2023-05-10T06:28:04;13.53;66.68
75190;HTU21D;69198;44.694;37.790;2023-05-10T06:29:05;13.60;67.27
75190;HTU21D;69198;44.694;37.790;2023-05-10T06:30:07;13.66;67.66
75190;HTU21D;69198;44.694;37.790;2023-05-10T06:31:09;13.73;67.75
75190;HTU21D;69198;44.694;37.790;2023-05-10T06:32:13;13.76;68.12
75190;HTU21D;69198;44.694;37.790;2023-05-10T06:33:14;13.79;68.07
75190;HTU21D;69198;44.694;37.790;2023-05-10T06:34:16;13.82;68.04
75190;HTU21D;69198;44.694;37.790;2023-05-10T06:35:17;13.91;67.65
75190;HTU21D;69198;44.694;37.790;2023-05-10T06:36:18;14.00;67.31
75190;HTU21D;69198;44.694;37.790;2023-05-10T06:37:19;14.06;67.31
75190;HTU21D;69198;44.694;37.790;2023-05-10T06:38:21;14.17;67.04
75190;HTU21D;69198;44.694;37.790;2023-05-10T06:39:22;14.22;66.88
75190;HTU21D;69198;44.694;37.790;2023-05-10T06:40:23;14.32;66.67
75190;HTU21D;69198;44.694;37.790;2023-05-10T06:41:24;14.44;66.59